Austin, TX (78785)

1:51 PM CDT on August 31, 2015 (GMT -0500)
North Loop | | Change Station
CLOSE
Current Station
Personal Weather Station
Location: Austin, TX
Elevation: 669 ft
Nearby Weather Stations

Elev 669 ft 30.32 °N, 97.72 °W | Updated 4 seconds ago

Clear
Clear
91.0 °F
Feels Like 95 °F
N
0.0
Wind Variable Wind from South
Gusts 6.0 mph

Today
High -- | Low -- °F
--% Chance of Precip.
Yesterday
High -- | Low -- °F
Precip. -- in
7:06 AM 7:55 PM
Waning Gibbous, 94% visible
Pressure 29.99 in
Visibility 10.0 miles
Clouds Clear
Heat Index 95 °F
Dew Point 67 °F
Humidity 46%
Rainfall in
Snow Depth Not available.
UV 11 out of 12
Pollen 6.30 out of 12
Air Quality Not available.
Flu Activity Not available.
METAR KATT 311751Z AUTO 19007KT 10SM CLR 33/18 A3004 RMK AO2 SLP155 T03330183 10339 20233 58005
Pressure 29.99 in
Visibility 10.0 miles
Clouds Clear
Heat Index 95 °F
Dew Point 67 °F
Humidity 46%
Rainfall in
Snow Depth Not available.
UV 11 out of 12
Pollen 6.30 out of 12
Air Quality Not available.
Flu Activity Not available.
METAR KATT 311751Z AUTO 19007KT 10SM CLR 33/18 A3004 RMK AO2 SLP155 T03330183 10339 20233 58005

10-Day Weather Forecast

×

Almanac

Astronomy

Aug. 31, 2015 Rise Set
Actual Time
Civil Twilight
Nautical Twilight
Astronomical Twilight
Moon
Length of Visible Light
Length of Day
Tomorrow will be .
, % of the Moon is Illuminated

Today's Extremes

State Highs State Lows

Community

WunderPhotos

Upload Photos

1,851,334 photos uploaded!

WunderBlogs® & News

Nearby

Air Quality

  Air Quality AQ Index Pollutant
Not available.

Snow Depth

Station Depth Elevation

Earthquake Activity

City Distance Mag. Time & Date
Minimum magnitude displayed is 2.5.

Coastal Water Temperatures

Place Temperature

Stations

Nearby Weather Stations

Station Location Temp. Windchill Dew Point Humidity Wind Precip. Elev Updated Type